Terminal Aerodrome Forecast
Issued by NWS

Home | Current Version | Previous Version | Graphics & Text | Print | Product List | Glossary On
Versions: 1 2 3 4 5 6 7 8 9 10 11 12 13 14 15 16 17 18 19 20 21 22 23 24
000
FTUS43 KGRB 241400 CCA
TAFRHI
TAF COR
KRHI 241411Z 2414/2512 19005KT 1/4SM FG VV002
      TEMPO 2415/2417 21004KT 1/2SM FG BKN003
     FM241700 21007KT 5SM BR SCT005 BKN008
     FM241800 21008KT P6SM BKN250
     FM242300 23004KT P6SM SCT035
     FM250300 25006KT 5SM BR SCT005 SCT250=

USA.gov is the U.S. government's official web portal to all federal, state and local government web resources and services.